Time,TemperatureF,DewpointF,PressureIn,WindDirection,WindDirectionDegrees,WindSpeedMPH,WindSpeedGustMPH,Humidity,HourlyPrecipIn,Conditions,Clouds,dailyrainin,SoftwareType,DateUTC
2013-04-01 00:00:00,40.5,32.0,29.66,North,355,1.0,-999.0,72,-99.99,,,0.02,weatherlink.com 1.10,2013-04-01 04:00:00,
2013-04-01 00:15:00,39.8,31.0,29.66,ENE,63,4.0,-999.0,71,-99.99,,,0.02,weatherlink.com 1.10,2013-04-01 04:15:00,
2013-04-01 00:30:00,38.8,31.0,29.67,NW,319,14.0,-999.0,73,-99.99,,,0.02,weatherlink.com 1.10,2013-04-01 04:30:00,
2013-04-01 00:45:00,38.2,31.0,29.67,ESE,121,5.0,-999.0,74,-99.99,,,0.00,weatherlink.com 1.10,2013-04-01 04:45:00,
2013-04-01 01:00:00,37.6,31.0,29.67,ENE,61,3.0,-999.0,76,-99.99,,,0.00,weatherlink.com 1.10,2013-04-01 05:00:00,
2013-04-01 01:15:00,37.3,30.0,29.67,North,5,3.0,-999.0,76,-99.99,,,0.00,weatherlink.com 1.10,2013-04-01 05:15:00,
2013-04-01 01:30:00,37.2,30.0,29.68,NNW,343,3.0,-999.0,76,-99.99,,,0.00,weatherlink.com 1.10,2013-04-01 05:30:00,
2013-04-01 01:45:00,33.8,28.0,29.70,NNE,33,3.0,-999.0,80,-99.99,,,0.00,weatherlink.com 1.10,2013-04-01 05:45:00,
2013-04-01 02:00:00,31.9,29.0,29.70,ENE,77,3.0,-999.0,87,-99.99,,,0.00,weatherlink.com 1.10,2013-04-01 06:00:00,
2013-04-01 02:15:00,31.9,29.0,29.70,NE,49,3.0,-999.0,87,-99.99,,,0.00,weatherlink.com 1.10,2013-04-01 06:15:00,
2013-04-01 02:30:00,32.0,28.0,29.71,ENE,70,1.0,-999.0,85,-99.99,,,0.00,weatherlink.com 1.10,2013-04-01 06:30:00,
2013-04-01 02:45:00,32.0,27.0,29.71,NE,36,2.0,-999.0,83,-99.99,,,0.00,weatherlink.com 1.10,2013-04-01 06:45:00,
2013-04-01 03:00:00,31.9,27.0,29.73,North,351,5.0,-999.0,82,-99.99,,,0.00,weatherlink.com 1.10,2013-04-01 07:00:00,
2013-04-01 03:16:00,32.1,26.0,29.73,NNE,33,6.0,-999.0,79,-99.99,,,0.00,weatherlink.com 1.10,2013-04-01 07:16:00,
2013-04-01 03:31:00,32.1,26.0,29.74,NE,44,5.0,-999.0,77,-99.99,,,0.00,weatherlink.com 1.10,2013-04-01 07:31:00,
2013-04-01 03:46:00,31.3,26.0,29.74,NE,37,1.0,-999.0,80,-99.99,,,0.00,weatherlink.com 1.10,2013-04-01 07:46:00,
2013-04-01 04:01:00,31.1,24.0,29.75,NE,54,2.0,-999.0,75,-99.99,,,0.00,weatherlink.com 1.10,2013-04-01 08:01:00,
2013-04-01 04:16:00,30.6,22.0,29.76,ESE,114,4.0,-999.0,69,-99.99,,,0.00,weatherlink.com 1.10,2013-04-01 08:16:00,
2013-04-01 05:16:00,29.0,19.0,29.79,NNE,19,2.0,-999.0,66,-99.99,,,0.00,weatherlink.com 1.10,2013-04-01 09:16:00,
2013-04-01 05:31:00,28.6,18.0,29.81,ESE,119,0.0,-999.0,66,-99.99,,,0.00,weatherlink.com 1.10,2013-04-01 09:31:00,
2013-04-01 05:46:00,28.3,18.0,29.82,ESE,118,1.0,-999.0,66,-99.99,,,0.00,weatherlink.com 1.10,2013-04-01 09:46:00,
2013-04-01 06:16:00,27.9,17.0,29.83,NNW,340,1.0,-999.0,65,-99.99,,,0.00,weatherlink.com 1.10,2013-04-01 10:16:00,
2013-04-01 06:31:00,27.5,18.0,29.84,NNE,13,6.0,-999.0,67,-99.99,,,0.00,weatherlink.com 1.10,2013-04-01 10:31:00,
2013-04-01 06:46:00,27.4,18.0,29.85,NE,38,1.0,-999.0,68,-99.99,,,0.00,weatherlink.com 1.10,2013-04-01 10:46:00,
2013-04-01 07:16:00,27.2,18.0,29.86,NNW,345,4.0,-999.0,67,-99.99,,,0.00,weatherlink.com 1.10,2013-04-01 11:16:00,
2013-04-01 07:31:00,27.1,18.0,29.86,South,169,1.0,-999.0,69,-99.99,,,0.00,weatherlink.com 1.10,2013-04-01 11:31:00,
2013-04-01 07:46:00,27.2,18.0,29.87,NNW,341,2.0,-999.0,68,-99.99,,,0.00,weatherlink.com 1.10,2013-04-01 11:46:00,
2013-04-01 08:01:00,27.4,18.0,29.88,ENE,78,0.0,-999.0,69,-99.99,,,0.00,weatherlink.com 1.10,2013-04-01 12:01:00,
2013-04-01 08:17:00,27.7,19.0,29.89,ENE,58,2.0,-999.0,70,-99.99,,,0.00,weatherlink.com 1.10,2013-04-01 12:17:00,
2013-04-01 08:32:00,27.8,19.0,29.89,NE,51,2.0,-999.0,69,-99.99,,,0.00,weatherlink.com 1.10,2013-04-01 12:32:00,
2013-04-01 08:47:00,27.2,20.0,29.91,ENE,57,3.0,-999.0,73,-99.99,,,0.00,weatherlink.com 1.10,2013-04-01 12:47:00,
2013-04-01 09:02:00,26.9,21.0,29.91,NE,40,4.0,-999.0,78,-99.99,,,0.00,weatherlink.com 1.10,2013-04-01 13:02:00,
2013-04-01 09:17:00,27.5,21.0,29.91,NW,324,10.0,-999.0,75,-99.99,,,0.00,weatherlink.com 1.10,2013-04-01 13:17:00,
2013-04-01 09:32:00,28.3,19.0,29.91,NE,46,4.0,-999.0,68,-99.99,,,0.00,weatherlink.com 1.10,2013-04-01 13:32:00,
2013-04-01 09:47:00,29.1,19.0,29.92,ENE,61,6.0,-999.0,65,-99.99,,,0.00,weatherlink.com 1.10,2013-04-01 13:47:00,
2013-04-01 10:02:00,28.6,17.0,29.93,North,5,2.0,-999.0,63,-99.99,,,0.00,weatherlink.com 1.10,2013-04-01 14:02:00,
2013-04-01 10:17:00,28.9,16.0,29.93,NNW,333,4.0,-999.0,59,-99.99,,,0.00,weatherlink.com 1.10,2013-04-01 14:17:00,
2013-04-01 10:32:00,29.8,15.0,29.94,South,188,1.0,-999.0,55,-99.99,,,0.00,weatherlink.com 1.10,2013-04-01 14:32:00,
2013-04-01 10:47:00,30.1,16.0,29.94,East,96,4.0,-999.0,56,-99.99,,,0.00,weatherlink.com 1.10,2013-04-01 14:47:00,
2013-04-01 11:02:00,30.4,15.0,29.94,NE,46,4.0,-999.0,53,-99.99,,,0.00,weatherlink.com 1.10,2013-04-01 15:02:00,
2013-04-01 11:17:00,30.9,15.0,29.95,NW,307,4.0,-999.0,51,-99.99,,,0.00,weatherlink.com 1.10,2013-04-01 15:17:00,
2013-04-01 11:32:00,31.1,15.0,29.95,NNE,25,10.0,-999.0,52,-99.99,,,0.00,weatherlink.com 1.10,2013-04-01 15:32:00,
2013-04-01 11:47:00,31.0,16.0,29.95,East,94,2.0,-999.0,54,-99.99,,,0.00,weatherlink.com 1.10,2013-04-01 15:47:00,
2013-04-01 12:02:00,31.1,14.0,29.96,NE,38,7.0,-999.0,49,-99.99,,,0.00,weatherlink.com 1.10,2013-04-01 16:02:00,
2013-04-01 12:17:00,31.8,16.0,29.96,NNE,24,6.0,-999.0,52,-99.99,,,0.00,weatherlink.com 1.10,2013-04-01 16:17:00,
2013-04-01 12:32:00,31.5,15.0,29.97,NW,311,4.0,-999.0,50,-99.99,,,0.00,weatherlink.com 1.10,2013-04-01 16:32:00,
2013-04-01 12:47:00,31.6,14.0,29.97,NE,42,3.0,-999.0,48,-99.99,,,0.00,weatherlink.com 1.10,2013-04-01 16:47:00,
2013-04-01 13:02:00,32.0,15.0,29.97,NE,40,4.0,-999.0,49,-99.99,,,0.00,weatherlink.com 1.10,2013-04-01 17:02:00,
2013-04-01 13:17:00,31.7,14.0,29.97,NNE,30,5.0,-999.0,49,-99.99,,,0.00,weatherlink.com 1.10,2013-04-01 17:17:00,
2013-04-01 13:32:00,32.4,14.0,29.96,NW,305,3.0,-999.0,47,-99.99,,,0.00,weatherlink.com 1.10,2013-04-01 17:32:00,
2013-04-01 13:47:00,32.4,15.0,29.97,NNE,24,4.0,-999.0,48,-99.99,,,0.00,weatherlink.com 1.10,2013-04-01 17:47:00,
2013-04-01 14:02:00,33.4,14.0,29.97,NNW,346,3.0,-999.0,45,-99.99,,,0.00,weatherlink.com 1.10,2013-04-01 18:02:00,
2013-04-01 14:17:00,33.0,14.0,29.97,NW,308,8.0,-999.0,46,-99.99,,,0.00,weatherlink.com 1.10,2013-04-01 18:17:00,
2013-04-01 14:32:00,32.8,14.0,29.97,NNW,337,5.0,-999.0,47,-99.99,,,0.00,weatherlink.com 1.10,2013-04-01 18:32:00,
2013-04-01 14:47:00,33.4,15.0,29.97,NW,309,18.0,-999.0,48,-99.99,,,0.00,weatherlink.com 1.10,2013-04-01 18:47:00,
2013-04-01 15:17:00,34.4,13.0,29.97,NNE,29,6.0,-999.0,42,-99.99,,,0.00,weatherlink.com 1.10,2013-04-01 19:17:00,
2013-04-01 15:32:00,34.1,14.0,29.97,NNW,346,4.0,-999.0,44,-99.99,,,0.00,weatherlink.com 1.10,2013-04-01 19:32:00,
2013-04-01 15:47:00,33.4,13.0,29.98,North,5,6.0,-999.0,44,-99.99,,,0.00,weatherlink.com 1.10,2013-04-01 19:47:00,
2013-04-01 16:02:00,34.2,14.0,29.98,NE,35,1.0,-999.0,44,-99.99,,,0.00,weatherlink.com 1.10,2013-04-01 20:02:00,
2013-04-01 16:17:00,33.6,14.0,29.98,ENE,62,3.0,-999.0,45,-99.99,,,0.00,weatherlink.com 1.10,2013-04-01 20:17:00,
2013-04-01 16:32:00,33.2,13.0,29.98,ENE,68,3.0,-999.0,44,-99.99,,,0.00,weatherlink.com 1.10,2013-04-01 20:32:00,
2013-04-01 16:47:00,33.5,14.0,29.98,NE,36,5.0,-999.0,45,-99.99,,,0.00,weatherlink.com 1.10,2013-04-01 20:47:00,
2013-04-01 17:02:00,33.3,16.0,29.98,WSW,258,2.0,-999.0,49,-99.99,,,0.00,weatherlink.com 1.10,2013-04-01 21:02:00,
2013-04-01 17:17:00,33.3,15.0,29.99,North,350,13.0,-999.0,47,-99.99,,,0.00,weatherlink.com 1.10,2013-04-01 21:17:00,
2013-04-01 17:32:00,32.2,15.0,29.99,North,5,12.0,-999.0,50,-99.99,,,0.00,weatherlink.com 1.10,2013-04-01 21:32:00,
2013-04-01 17:47:00,31.6,16.0,30.00,ENE,71,2.0,-999.0,52,-99.99,,,0.00,weatherlink.com 1.10,2013-04-01 21:47:00,
2013-04-01 18:02:00,31.8,16.0,30.01,ENE,61,1.0,-999.0,53,-99.99,,,0.00,weatherlink.com 1.10,2013-04-01 22:02:00,
2013-04-01 18:17:00,31.5,16.0,30.01,WNW,301,3.0,-999.0,53,-99.99,,,0.00,weatherlink.com 1.10,2013-04-01 22:17:00,
2013-04-01 18:32:00,30.9,15.0,30.01,NNE,25,5.0,-999.0,51,-99.99,,,0.00,weatherlink.com 1.10,2013-04-01 22:32:00,
2013-04-01 18:47:00,31.1,15.0,30.02,NNW,348,4.0,-999.0,52,-99.99,,,0.00,weatherlink.com 1.10,2013-04-01 22:47:00,
2013-04-01 19:02:00,30.7,17.0,30.02,NNE,29,8.0,-999.0,57,-99.99,,,0.00,weatherlink.com 1.10,2013-04-01 23:02:00,
2013-04-01 19:17:00,30.2,16.0,30.03,NNW,335,4.0,-999.0,56,-99.99,,,0.00,weatherlink.com 1.10,2013-04-01 23:17:00,
2013-04-01 19:32:00,29.8,17.0,30.04,NE,42,2.0,-999.0,58,-99.99,,,0.00,weatherlink.com 1.10,2013-04-01 23:32:00,
2013-04-01 19:47:00,29.2,18.0,30.04,NW,325,7.0,-999.0,62,-99.99,,,0.00,weatherlink.com 1.10,2013-04-01 23:47:00,
2013-04-01 20:03:00,28.9,17.0,30.04,NNW,348,3.0,-999.0,62,-99.99,,,0.00,weatherlink.com 1.10,2013-04-02 00:03:00,
2013-04-01 20:17:00,29.1,17.0,30.05,NNW,333,2.0,-999.0,60,-99.99,,,0.00,weatherlink.com 1.10,2013-04-02 00:17:00,
2013-04-01 20:33:00,28.8,16.0,30.05,NE,52,5.0,-999.0,58,-99.99,,,0.00,weatherlink.com 1.10,2013-04-02 00:33:00,
2013-04-01 20:48:00,28.6,16.0,30.06,NNE,33,5.0,-999.0,59,-99.99,,,0.00,weatherlink.com 1.10,2013-04-02 00:48:00,
2013-04-01 21:03:00,28.4,16.0,30.06,NNE,19,2.0,-999.0,60,-99.99,,,0.00,weatherlink.com 1.10,2013-04-02 01:03:00,
2013-04-01 21:18:00,28.5,16.0,30.06,WNW,287,7.0,-999.0,59,-99.99,,,0.00,weatherlink.com 1.10,2013-04-02 01:18:00,
2013-04-01 21:33:00,28.4,15.0,30.07,ENE,64,2.0,-999.0,58,-99.99,,,0.00,weatherlink.com 1.10,2013-04-02 01:33:00,
2013-04-01 21:48:00,28.2,15.0,30.07,East,86,1.0,-999.0,59,-99.99,,,0.00,weatherlink.com 1.10,2013-04-02 01:48:00,
2013-04-01 22:03:00,27.9,16.0,30.07,NNW,340,1.0,-999.0,61,-99.99,,,0.00,weatherlink.com 1.10,2013-04-02 02:03:00,
2013-04-01 22:18:00,27.7,16.0,30.08,North,9,0.0,-999.0,61,-99.99,,,0.00,weatherlink.com 1.10,2013-04-02 02:18:00,
2013-04-01 22:33:00,27.5,16.0,30.08,NE,34,0.0,-999.0,63,-99.99,,,0.00,weatherlink.com 1.10,2013-04-02 02:33:00,
2013-04-01 22:48:00,27.2,16.0,30.08,North,360,3.0,-999.0,63,-99.99,,,0.00,weatherlink.com 1.10,2013-04-02 02:48:00,
2013-04-01 23:03:00,27.0,17.0,30.08,NNE,30,1.0,-999.0,65,-99.99,,,0.00,weatherlink.com 1.10,2013-04-02 03:03:00,
2013-04-01 23:18:00,26.7,16.0,30.08,NNW,327,2.0,-999.0,65,-99.99,,,0.00,weatherlink.com 1.10,2013-04-02 03:18:00,
2013-04-01 23:33:00,26.5,16.0,30.08,West,281,0.0,-999.0,65,-99.99,,,0.00,weatherlink.com 1.10,2013-04-02 03:33:00,
2013-04-01 23:48:00,26.3,16.0,30.08,NW,317,3.0,-999.0,65,-99.99,,,0.00,weatherlink.com 1.10,2013-04-02 03:48:00,